Point Pleasant Beach, NJ (08742)

9:13 AM EST on February 23, 2017 (GMT -0500)
Jersey Shore Wx Center | | Change Station
Active Advisory: Dense Fog Advisory

Elev 13 ft 40.09 °N, 74.05 °W | Updated 4 seconds ago

Overcast
Overcast
49.5 °F
Feels Like 50 °F
N
0.0
Wind Variable Wind from SSW
Gusts 0.0 mph

Today
High -- | Low -- °F
--% Chance of Precip.
Yesterday
High -- | Low -- °F
Precip. -- in
Pressure 29.94 in
Visibility 7.0 miles
Clouds Mostly Cloudy 200 ft
Overcast 1400 ft
Windchill 50 °F
Dew Point 48 °F
Humidity 96%
Rainfall 0.00 in
Snow Depth Not available.
6:38 AM 5:41 PM
Waning Crescent, 10% visible
METAR KBLM 231356Z AUTO 23006KT 7SM BKN002 OVC014 10/10 A2992 RMK AO2 SLP139 T01000100
Pressure 29.94 in
Visibility 7.0 miles
Clouds Mostly Cloudy 200 ft
Overcast 1400 ft
Windchill 50 °F
Dew Point 48 °F
Humidity 96%
Rainfall 0.00 in
Snow Depth Not available.
6:38 AM 5:41 PM
Waning Crescent, 10% visible
METAR KBLM 231356Z AUTO 23006KT 7SM BKN002 OVC014 10/10 A2992 RMK AO2 SLP139 T01000100

Get Your Daily Forecast Email!

Thanks for signing up!

Be on the lookout for a verification email in your inbox.

You'll start receiving the daily forecast at 8 AM.

×

10-Day Weather Forecast

Almanac

Astronomy

Feb. 23, 2017 Rise Set
Actual Time
Civil Twilight
Nautical Twilight
Astronomical Twilight
Moon
Length of Visible Light
Length of Day
Tomorrow will be .
, % of the Moon is Illuminated

Today's Extremes

State Highs State Lows

Community

WunderPhotos

Upload Photos

1,962,540 photos uploaded!

WunderBlog® & News

Nearby

Air Quality

  Air Quality AQ Index Pollutant
Not available.

Snow Depth

Station Depth Elevation

Earthquake Activity

City Distance Mag. Time & Date
Minimum magnitude displayed is 2.5.

Coastal Water Temperatures

Place Temperature

Stations

Nearby Weather Stations

Station Location Temp. Windchill Dew Point Humidity Wind Precip. Elev Updated Type
                   

Watches & Warnings

Dense Fog Advisory
Issued: 8:17 AM EST Feb. 23, 2017 – National Weather Service

... Dense fog advisory now in effect until 11 am EST this
morning...

* locations... northeastern Maryland, northern Delaware,
southeastern Pennsylvania and central New Jersey.

* Visibility... one-quarter mile or less in spots.

* Timing... areas of dense fog this morning will gradually
dissipate from southeast to northwest across the region between
9 am and 11 am.

* Impacts... the dense fog and reduced visibility will create
hazardous driving conditions.

Precautionary/preparedness actions...

A dense fog advisory means that the visibility will be reduced to
less than one quarter mile. If driving, use extra caution and be
sure to leave plenty of distance between your vehicle and the one
ahead of you.


Jrk